Time;durP1;ratioP1;P1;durP2;ratioP2;P2;SDS_P1;SDS_P2;PMS_P1;PMS_P2;Temp;Humidity;BMP_temperature;BMP_pressure;BME280_temperature;BME280_humidity;BME280_pressure;Samples;Min_cycle;Max_cycle;Signal;HPM_P1;HPM_P2
2021/07/06 00:00:27;;;;;;;15.48;8.13;;;;;;;20.15;52.21;99859.25;5014199;28;20402;-71
2021/07/06 00:02:53;;;;;;;16.77;8.57;;;;;;;20.10;52.69;99864.84;5034197;28;20042;-71
2021/07/06 00:05:32;;;;;;;19.52;8.68;;;;;;;20.07;52.82;99851.75;5032883;28;20053;-70
2021/07/06 00:08:00;;;;;;;19.42;9.57;;;;;;;20.38;51.40;99840.06;4996523;28;20057;-70
2021/07/06 00:10:26;;;;;;;26.95;10.23;;;;;;;20.17;52.12;99852.88;5033260;28;20058;-70
2021/07/06 00:12:53;;;;;;;21.10;10.77;;;;;;;20.05;53.43;99866.88;4983848;28;20040;-71
2021/07/06 00:15:22;;;;;;;36.47;14.18;;;;;;;20.23;53.31;99864.94;5000369;28;20041;-70
2021/07/06 00:17:49;;;;;;;35.17;12.93;;;;;;;20.29;53.47;99865.41;5033428;28;20203;-70
2021/07/06 00:20:16;;;;;;;25.70;11.63;;;;;;;19.85;54.67;99857.47;5025823;28;20049;-69
2021/07/06 00:22:42;;;;;;;16.60;8.05;;;;;;;19.36;58.84;99872.78;4979842;28;20037;-67
2021/07/06 00:25:09;;;;;;;16.10;7.20;;;;;;;19.01;60.16;99872.13;4963462;28;20399;-67
2021/07/06 00:27:34;;;;;;;26.52;12.25;;;;;;;18.93;57.48;99874.38;4947628;28;20396;-69
2021/07/06 00:30:00;;;;;;;21.92;10.38;;;;;;;19.69;55.67;99869.97;5013405;28;20050;-69
2021/07/06 00:32:26;;;;;;;19.30;8.73;;;;;;;20.02;55.66;99861.75;5013279;28;20065;-68
2021/07/06 00:34:51;;;;;;;21.63;11.52;;;;;;;20.15;53.17;99856.59;5013191;28;20487;-69
2021/07/06 00:37:17;;;;;;;27.00;11.43;;;;;;;19.81;54.23;99860.41;5013006;28;20049;-69
2021/07/06 00:39:43;;;;;;;24.27;13.07;;;;;;;19.81;54.36;99874.53;5013258;28;20176;-68
2021/07/06 00:42:10;;;;;;;34.90;14.70;;;;;;;19.53;55.38;99864.72;5012669;28;20128;-69
2021/07/06 00:44:35;;;;;;;35.03;15.70;;;;;;;19.43;55.50;99858.22;4995001;28;20073;-70
2021/07/06 00:47:03;;;;;;;33.60;15.25;;;;;;;19.42;55.48;99871.56;5013141;28;20410;-69
2021/07/06 00:49:29;;;;;;;33.50;13.52;;;;;;;19.31;55.37;99869.50;4963034;28;20050;-70
2021/07/06 00:51:55;;;;;;;38.40;18.70;;;;;;;19.65;54.87;99873.75;4946924;28;20045;-68
2021/07/06 00:54:20;;;;;;;42.67;18.90;;;;;;;19.67;54.88;99869.22;5013067;28;20034;-69
2021/07/06 00:56:46;;;;;;;53.00;18.63;;;;;;;19.55;55.41;99878.75;5011645;28;20100;-68
2021/07/06 00:59:13;;;;;;;43.10;16.35;;;;;;;19.58;54.79;99872.41;4947221;28;20056;-71
2021/07/06 01:01:38;;;;;;;34.75;13.30;;;;;;;19.66;54.09;99870.16;4963106;28;20458;-69
2021/07/06 01:04:08;;;;;;;31.40;13.00;;;;;;;19.49;54.76;99876.44;5012876;28;20046;-68
2021/07/06 01:06:34;;;;;;;25.55;12.82;;;;;;;19.26;55.87;99877.75;5012993;28;20046;-69
2021/07/06 01:08:59;;;;;;;31.42;13.48;;;;;;;19.31;55.73;99878.31;5013456;28;20038;-68
2021/07/06 01:11:26;;;;;;;32.22;13.55;;;;;;;19.36;55.64;99883.41;4995833;28;20407;-69
2021/07/06 01:13:52;;;;;;;42.92;14.20;;;;;;;19.46;55.53;99891.66;5013290;28;20143;-69
2021/07/06 01:16:18;;;;;;;33.05;13.82;;;;;;;19.51;55.47;99889.59;5013107;28;20054;-69
2021/07/06 01:18:44;;;;;;;32.92;13.30;;;;;;;19.43;55.74;99878.59;5013730;28;20399;-69
2021/07/06 01:21:10;;;;;;;32.92;13.20;;;;;;;19.50;55.42;99877.28;5013267;28;20045;-68
2021/07/06 01:23:36;;;;;;;32.88;13.48;;;;;;;19.48;55.01;99882.69;4979334;28;20042;-69
2021/07/06 01:26:04;;;;;;;22.70;11.45;;;;;;;19.02;56.49;99876.50;5013160;28;20045;-69
2021/07/06 01:28:31;;;;;;;25.63;12.93;;;;;;;18.83;56.98;99884.63;4995307;28;20553;-70
2021/07/06 01:30:57;;;;;;;34.25;14.85;;;;;;;19.07;56.79;99882.38;4963675;28;20041;-69
2021/07/06 01:33:25;;;;;;;35.25;14.88;;;;;;;19.17;57.02;99896.84;5013151;28;20045;-68
2021/07/06 01:35:52;;;;;;;30.45;13.75;;;;;;;19.18;56.90;99906.50;4995995;28;20045;-68
2021/07/06 01:38:18;;;;;;;33.30;13.85;;;;;;;19.05;57.32;99910.78;4947393;28;20095;-68
2021/07/06 01:40:44;;;;;;;33.28;14.88;;;;;;;18.99;57.31;99895.22;4946888;28;20048;-68
2021/07/06 01:43:10;;;;;;;27.88;13.35;;;;;;;18.98;57.12;99904.97;5012645;28;20046;-69
2021/07/06 01:45:35;;;;;;;21.15;11.57;;;;;;;18.69;58.31;99916.34;4995128;28;20042;-67
2021/07/06 01:48:03;;;;;;;23.67;13.77;;;;;;;18.53;58.92;99921.56;5012377;28;20045;-68
2021/07/06 01:50:31;;;;;;;27.95;12.82;;;;;;;18.58;58.86;99924.84;4962510;28;20489;-68
2021/07/06 01:52:58;;;;;;;18.70;12.35;;;;;;;18.56;58.62;99907.28;4995243;28;20045;-68
2021/07/06 01:55:29;;;;;;;25.25;13.15;;;;;;;18.88;58.12;99919.69;4962678;28;20049;-68
2021/07/06 01:57:58;;;;;;;26.05;12.20;;;;;;;18.85;58.02;99919.84;5012610;28;20475;-69
2021/07/06 02:00:27;;;;;;;21.40;10.95;;;;;;;18.75;58.12;99923.09;4946500;28;20041;-70
2021/07/06 02:02:57;;;;;;;22.52;10.75;;;;;;;18.78;58.37;99928.22;4994526;28;20088;-68
2021/07/06 02:05:39;;;;;;;24.27;10.52;;;;;;;18.61;59.07;99932.66;4994511;28;20057;-68
2021/07/06 02:08:07;;;;;;;26.17;9.65;;;;;;;18.57;58.64;99927.53;4994940;28;20490;-68
2021/07/06 02:10:33;;;;;;;20.25;9.43;;;;;;;18.63;58.23;99909.59;5012158;28;20132;-69
2021/07/06 02:13:00;;;;;;;25.17;9.32;;;;;;;18.81;57.92;99922.75;5011961;28;20045;-68
2021/07/06 02:15:27;;;;;;;18.88;10.75;;;;;;;18.80;58.74;99926.34;4946112;28;20049;-68
2021/07/06 02:17:52;;;;;;;31.65;9.98;;;;;;;18.66;58.23;99916.50;4961994;28;20046;-67
2021/07/06 02:20:19;;;;;;;16.40;8.98;;;;;;;18.80;58.81;99931.66;5011905;28;20533;-68
2021/07/06 02:22:46;;;;;;;20.98;9.50;;;;;;;18.76;58.98;99936.25;4978321;28;20125;-69
2021/07/06 02:25:14;;;;;;;26.92;9.27;;;;;;;18.64;59.21;99932.50;4978404;28;20044;-68
2021/07/06 02:27:41;;;;;;;28.20;9.85;;;;;;;19.34;56.23;99936.53;4993667;28;20095;-68
2021/07/06 02:30:09;;;;;;;21.65;10.02;;;;;;;20.39;53.70;99934.81;4993890;28;20041;-69
2021/07/06 02:32:35;;;;;;;42.17;10.88;;;;;;;20.87;51.52;99930.03;5011680;28;20129;-68
2021/07/06 02:35:03;;;;;;;27.08;8.57;;;;;;;21.53;49.72;99939.94;4945645;28;20614;-68
2021/07/06 02:37:29;;;;;;;19.77;9.52;;;;;;;21.88;48.72;99943.78;4945380;28;20175;-68
2021/07/06 02:39:55;;;;;;;25.83;9.50;;;;;;;22.19;47.55;99933.72;5011183;28;20129;-67
2021/07/06 02:42:21;;;;;;;17.45;9.35;;;;;;;22.62;47.25;99930.75;5011335;28;20038;-69
2021/07/06 02:44:46;;;;;;;19.60;8.55;;;;;;;22.75;46.71;99921.75;4994191;28;20113;-69
2021/07/06 02:47:12;;;;;;;23.52;9.57;;;;;;;22.91;45.75;99932.22;5011425;28;20046;-68
2021/07/06 02:49:38;;;;;;;24.90;9.00;;;;;;;23.37;44.88;99923.53;5011307;28;20046;-68
2021/07/06 02:52:04;;;;;;;20.52;8.63;;;;;;;23.66;43.89;99930.25;5011676;28;20491;-68
2021/07/06 02:54:29;;;;;;;20.80;8.55;;;;;;;24.35;42.63;99928.53;4961579;28;20046;-67
2021/07/06 02:56:55;;;;;;;19.00;8.02;;;;;;;24.19;42.88;99930.66;5011264;28;20045;-68
2021/07/06 02:59:21;;;;;;;18.15;8.60;;;;;;;24.34;42.65;99932.19;5011703;28;20049;-68
2021/07/06 03:01:46;;;;;;;18.23;8.52;;;;;;;24.22;42.61;99933.09;5011571;28;20077;-68
2021/07/06 03:04:12;;;;;;;26.15;9.50;;;;;;;24.40;42.02;99946.88;5011078;28;20046;-68
2021/07/06 03:06:38;;;;;;;28.17;8.88;;;;;;;24.67;41.75;99941.22;5012659;28;20226;-68
2021/07/06 03:09:03;;;;;;;17.40;8.93;;;;;;;24.81;41.06;99929.41;5015215;28;20061;-69
2021/07/06 03:11:29;;;;;;;19.77;7.85;;;;;;;25.15;41.00;99949.81;5015209;28;20041;-68
2021/07/06 03:13:55;;;;;;;13.10;7.80;;;;;;;25.36;40.32;99949.06;5015162;28;20040;-68
2021/07/06 03:16:20;;;;;;;14.90;8.18;;;;;;;25.38;40.82;99950.66;5015086;28;20080;-68
2021/07/06 03:18:46;;;;;;;16.33;7.32;;;;;;;25.73;39.89;99947.75;5014884;28;20585;-68
2021/07/06 03:21:12;;;;;;;22.15;9.00;;;;;;;25.92;39.31;99953.25;5014964;28;20521;-67
2021/07/06 03:23:37;;;;;;;18.17;8.63;;;;;;;26.03;38.56;99959.56;5015166;28;20050;-69
2021/07/06 03:26:03;;;;;;;19.65;8.25;;;;;;;26.32;38.69;99947.19;5014963;28;20072;-69
2021/07/06 03:28:29;;;;;;;16.73;8.18;;;;;;;26.74;37.42;99960.56;5015101;28;20062;-68
2021/07/06 03:30:54;;;;;;;46.70;9.73;;;;;;;26.53;36.96;99945.34;4997679;28;20042;-69
2021/07/06 03:33:20;;;;;;;14.40;7.95;;;;;;;27.07;36.87;99944.19;5014892;28;20080;-68
2021/07/06 03:35:46;;;;;;;30.58;8.82;;;;;;;27.07;36.37;99932.63;5014802;28;20049;-68
2021/07/06 03:38:13;;;;;;;16.17;8.23;;;;;;;27.05;37.01;99946.19;5014876;28;20049;-70
2021/07/06 03:40:39;;;;;;;17.40;7.80;;;;;;;27.12;36.78;99941.94;4964559;28;20034;-69
2021/07/06 03:43:08;;;;;;;24.35;8.45;;;;;;;27.17;36.86;99954.97;4997242;28;20041;-68
2021/07/06 03:45:34;;;;;;;20.23;8.43;;;;;;;27.66;36.02;99950.56;4997668;28;20041;-67
2021/07/06 03:48:00;;;;;;;34.78;9.52;;;;;;;27.57;35.80;99954.06;4980725;28;20042;-68
2021/07/06 03:50:26;;;;;;;20.33;8.95;;;;;;;27.77;35.13;99947.72;5014420;28;20053;-67
2021/07/06 03:52:58;;;;;;;37.70;9.90;;;;;;;27.81;35.94;99949.16;4963973;28;20513;-68
2021/07/06 03:55:24;;;;;;;36.05;9.80;;;;;;;27.98;35.50;99943.03;4996659;28;20052;-68
2021/07/06 03:57:50;;;;;;;32.33;9.00;;;;;;;28.26;35.12;99960.19;4948129;28;20080;-68
2021/07/06 04:00:19;;;;;;;31.65;8.35;;;;;;;28.00;34.99;99959.88;5014257;28;20042;-67
2021/07/06 04:02:45;;;;;;;24.63;7.70;;;;;;;27.93;34.47;99956.06;4948174;28;20041;-67
2021/07/06 04:05:12;;;;;;;29.67;8.25;;;;;;;28.23;33.97;99971.22;5013991;28;20424;-69
2021/07/06 04:07:39;;;;;;;26.02;7.95;;;;;;;28.38;34.10;99958.19;4947732;28;20044;-68
2021/07/06 04:10:07;;;;;;;23.52;8.02;;;;;;;28.42;33.95;99970.34;4995939;28;20053;-68
2021/07/06 04:12:33;;;;;;;44.10;9.25;;;;;;;28.53;34.25;99967.47;4996267;28;20184;-68
2021/07/06 04:14:59;;;;;;;29.10;8.45;;;;;;;28.39;34.13;99951.78;5017835;28;20099;-69
2021/07/06 04:17:25;;;;;;;28.98;7.45;;;;;;;28.64;34.09;99955.69;5016564;28;20127;-69
2021/07/06 04:19:50;;;;;;;18.70;7.00;;;;;;;28.82;33.80;99959.28;5031447;28;20041;-68
2021/07/06 04:22:17;;;;;;;22.60;7.43;;;;;;;29.09;33.43;99955.81;5028293;28;20064;-70
2021/07/06 04:24:43;;;;;;;16.60;7.05;;;;;;;30.00;32.02;99973.63;5031545;28;20542;-70
2021/07/06 04:27:08;;;;;;;23.20;8.32;;;;;;;29.31;32.27;99971.56;4988152;28;20045;-70
2021/07/06 04:29:34;;;;;;;20.13;6.53;;;;;;;29.02;33.31;99962.78;5010995;28;20046;-70
2021/07/06 04:32:00;;;;;;;18.58;6.90;;;;;;;29.24;33.04;99967.78;4994185;28;20041;-71
2021/07/06 04:34:26;;;;;;;24.80;8.38;;;;;;;29.61;32.55;99965.00;5010970;28;20046;-70
2021/07/06 04:36:51;;;;;;;9.60;6.47;;;;;;;29.54;31.33;99984.63;4991642;28;20052;-70
2021/07/06 04:39:18;;;;;;;17.00;6.40;;;;;;;29.36;31.75;99971.94;5026998;28;20087;-70
2021/07/06 04:41:44;;;;;;;11.73;6.30;;;;;;;29.79;31.44;99981.19;5028368;28;20044;-68
2021/07/06 04:44:11;;;;;;;11.10;6.57;;;;;;;29.79;32.15;99974.97;5019487;28;20449;-69
2021/07/06 04:46:37;;;;;;;12.38;6.75;;;;;;;29.83;31.43;99977.19;5006146;28;20065;-69
2021/07/06 04:49:03;;;;;;;13.70;6.72;;;;;;;30.35;30.91;99986.25;5008381;28;20041;-69
2021/07/06 04:51:30;;;;;;;17.90;7.47;;;;;;;30.45;30.30;99972.63;5005128;28;20503;-71
2021/07/06 04:53:56;;;;;;;13.48;6.53;;;;;;;31.36;29.22;99985.66;5006505;28;20088;-69
2021/07/06 04:56:25;;;;;;;17.67;6.68;;;;;;;31.12;29.48;99995.31;5024441;28;20073;-68
2021/07/06 04:58:51;;;;;;;12.13;6.00;;;;;;;30.77;28.84;99982.00;5007290;28;20045;-68
2021/07/06 05:01:17;;;;;;;14.15;6.43;;;;;;;31.32;29.00;99981.59;5014303;28;20042;-69
2021/07/06 05:03:42;;;;;;;13.23;6.13;;;;;;;31.00;28.94;99991.22;4986434;28;20045;-71
2021/07/06 05:06:10;;;;;;;10.88;5.95;;;;;;;31.13;28.29;99986.22;4988039;28;20061;-68
2021/07/06 05:08:36;;;;;;;10.60;6.10;;;;;;;31.23;28.46;99986.13;4989070;28;20100;-70
2021/07/06 05:11:01;;;;;;;9.90;5.60;;;;;;;31.55;28.13;99991.63;5008573;28;20037;-69
2021/07/06 05:13:28;;;;;;;12.52;5.82;;;;;;;32.63;27.04;99986.09;5008898;28;20076;-71
2021/07/06 05:15:53;;;;;;;14.60;6.63;;;;;;;32.64;28.01;99998.63;5027829;28;20053;-69
2021/07/06 05:18:20;;;;;;;19.73;7.47;;;;;;;32.73;27.30;99998.47;4983369;28;20545;-70
2021/07/06 05:20:45;;;;;;;13.00;6.10;;;;;;;32.52;26.77;100003.56;5009461;28;20041;-69
2021/07/06 05:23:11;;;;;;;18.42;5.78;;;;;;;32.51;26.74;100001.88;5011651;28;20099;-72
2021/07/06 05:25:37;;;;;;;11.73;5.47;;;;;;;32.45;26.69;99987.16;5008939;28;20045;-72
2021/07/06 05:28:02;;;;;;;11.25;5.30;;;;;;;32.97;25.87;99994.88;5013313;28;20057;-71
2021/07/06 05:30:28;;;;;;;10.35;5.10;;;;;;;35.06;23.56;99996.41;5028204;28;20046;-71
2021/07/06 05:32:54;;;;;;;15.52;5.43;;;;;;;34.76;23.84;99999.09;5030374;28;20084;-69
2021/07/06 05:35:20;;;;;;;8.20;5.15;;;;;;;33.58;24.66;99998.69;5002571;28;20045;-70
2021/07/06 05:37:46;;;;;;;7.07;4.95;;;;;;;33.09;25.68;99998.88;5010195;28;20534;-69
2021/07/06 05:40:12;;;;;;;14.45;5.00;;;;;;;33.61;24.91;99994.75;5009646;28;20096;-70
2021/07/06 05:42:39;;;;;;;8.07;4.90;;;;;;;33.90;24.53;99991.38;4959435;28;20053;-69
2021/07/06 05:45:06;;;;;;;11.48;5.55;;;;;;;34.14;23.85;99999.31;4962464;28;20045;-71
2021/07/06 05:47:35;;;;;;;19.85;5.82;;;;;;;34.02;24.68;100006.19;4943941;28;20046;-69
2021/07/06 05:50:19;;;;;;;16.40;5.22;;;;;;;34.04;24.00;99996.00;4991385;28;20107;-69
2021/07/06 05:52:45;;;;;;;10.38;5.03;;;;;;;33.80;24.13;100002.44;4982957;28;20088;-70
2021/07/06 05:55:10;;;;;;;16.70;5.85;;;;;;;33.76;24.79;100003.81;4991443;28;20046;-69
2021/07/06 05:57:39;;;;;;;18.20;5.28;;;;;;;33.46;24.81;99989.25;5008221;28;20037;-71
2021/07/06 06:00:07;;;;;;;10.77;5.78;;;;;;;33.92;24.15;100005.59;4990938;28;20161;-70
2021/07/06 06:02:35;;;;;;;14.32;5.60;;;;;;;34.05;23.70;99997.69;4979623;28;20060;-72
2021/07/06 06:05:01;;;;;;;12.20;4.85;;;;;;;34.54;22.74;99997.28;5029588;28;20486;-71
2021/07/06 06:07:27;;;;;;;9.88;4.25;;;;;;;35.37;21.93;99999.75;5011748;28;20045;-72
2021/07/06 06:09:53;;;;;;;6.28;4.30;;;;;;;35.82;21.28;99995.91;5029721;28;20087;-71
2021/07/06 06:12:19;;;;;;;6.70;4.97;;;;;;;36.68;20.21;100007.56;5011754;28;20056;-70
2021/07/06 06:14:44;;;;;;;5.30;4.80;;;;;;;34.06;22.42;99997.50;5010542;28;20045;-70
2021/07/06 06:17:10;;;;;;;7.82;4.97;;;;;;;33.76;23.09;100007.38;5027723;28;20084;-71
2021/07/06 06:19:36;;;;;;;5.60;4.63;;;;;;;34.23;22.18;100008.25;5011828;28;20135;-73
2021/07/06 06:22:02;;;;;;;5.97;4.45;;;;;;;33.55;22.57;99999.03;4962942;28;20051;-72
2021/07/06 06:24:28;;;;;;;7.43;4.43;;;;;;;33.73;21.89;100018.59;5029083;28;20050;-72
2021/07/06 06:26:54;;;;;;;8.30;4.57;;;;;;;33.17;22.52;100006.97;4960341;28;20088;-72
2021/07/06 06:29:20;;;;;;;5.15;4.65;;;;;;;33.61;22.17;100002.91;5011148;28;20053;-72
2021/07/06 06:31:46;;;;;;;6.85;5.35;;;;;;;34.30;22.30;99999.19;4992523;28;20419;-71
2021/07/06 06:34:12;;;;;;;8.40;4.47;;;;;;;34.06;22.80;100005.66;5009994;28;20073;-70
2021/07/06 06:36:38;;;;;;;9.40;4.63;;;;;;;34.58;21.28;100007.59;4998862;28;20488;-73
2021/07/06 06:39:04;;;;;;;7.78;4.40;;;;;;;33.52;22.91;99993.97;5029024;28;20045;-71
2021/07/06 06:41:30;;;;;;;5.72;4.57;;;;;;;33.52;23.26;100010.25;5028979;28;20045;-71
2021/07/06 06:43:56;;;;;;;5.32;4.80;;;;;;;33.58;22.25;99998.69;4997618;28;20046;-72
2021/07/06 06:46:21;;;;;;;12.07;4.78;;;;;;;33.33;22.67;100013.38;5009575;28;20548;-72
2021/07/06 06:48:48;;;;;;;8.80;4.78;;;;;;;32.35;23.75;100007.31;4959034;28;20065;-69
2021/07/06 06:51:14;;;;;;;7.47;4.90;;;;;;;32.92;23.08;100004.53;4975919;28;20061;-69
2021/07/06 06:53:40;;;;;;;5.15;4.70;;;;;;;33.43;22.83;99990.44;4998538;28;20050;-71
2021/07/06 06:56:06;;;;;;;6.00;4.65;;;;;;;31.33;25.64;100003.06;5028474;28;20154;-71
2021/07/06 06:58:31;;;;;;;10.43;5.20;;;;;;;31.23;26.45;99994.25;5026408;28;20128;-70
2021/07/06 07:00:57;;;;;;;9.32;4.93;;;;;;;30.00;28.07;100002.47;5013359;28;20100;-71
2021/07/06 07:03:23;;;;;;;7.78;5.70;;;;;;;30.62;26.75;99998.78;5007924;28;20046;-72
2021/07/06 07:05:50;;;;;;;8.75;5.22;;;;;;;31.65;25.20;100002.28;5007507;28;20076;-71
2021/07/06 07:08:16;;;;;;;6.25;5.20;;;;;;;31.69;25.65;99981.16;4957970;28;20048;-70
2021/07/06 07:10:42;;;;;;;10.70;5.50;;;;;;;32.74;24.09;100004.72;4997009;28;20536;-70
2021/07/06 07:13:09;;;;;;;10.55;5.80;;;;;;;34.72;21.29;100004.06;5028637;28;20076;-69
2021/07/06 07:15:36;;;;;;;8.48;5.30;;;;;;;34.26;21.99;99999.75;5009870;28;20498;-73
2021/07/06 07:18:02;;;;;;;5.53;4.38;;;;;;;31.28;25.24;100016.22;4978983;28;20038;-70
2021/07/06 07:20:28;;;;;;;10.98;5.10;;;;;;;32.20;23.59;100012.53;5008668;28;20049;-71
2021/07/06 07:22:54;;;;;;;11.68;5.32;;;;;;;32.91;22.85;100000.97;4989397;28;20042;-71
2021/07/06 07:25:20;;;;;;;11.98;5.15;;;;;;;32.32;23.77;100026.63;5008151;28;20041;-68
2021/07/06 07:27:47;;;;;;;13.43;5.55;;;;;;;32.49;23.61;100007.47;4996912;28;20096;-70
2021/07/06 07:30:14;;;;;;;6.85;4.50;;;;;;;32.14;23.51;99980.72;5026568;28;20136;-70
2021/07/06 07:32:41;;;;;;;7.78;5.05;;;;;;;33.37;22.89;99988.44;5027363;28;20065;-69
2021/07/06 07:35:07;;;;;;;9.48;4.90;;;;;;;34.39;21.23;99992.69;4976834;28;20534;-72
2021/07/06 07:37:33;;;;;;;6.57;4.55;;;;;;;32.10;24.23;99998.34;4990867;28;20057;-72
2021/07/06 07:39:59;;;;;;;8.50;5.30;;;;;;;31.43;24.34;99998.34;5008343;28;20049;-70
2021/07/06 07:42:25;;;;;;;8.80;5.20;;;;;;;31.61;24.33;100007.19;5008097;28;20111;-71
2021/07/06 07:44:51;;;;;;;6.72;4.60;;;;;;;32.31;24.25;99990.56;5007733;28;20046;-70
2021/07/06 07:47:17;;;;;;;5.65;4.57;;;;;;;32.23;24.05;99990.53;5008819;28;20096;-69
2021/07/06 07:49:43;;;;;;;7.35;4.80;;;;;;;32.58;24.02;99983.06;5007153;28;20155;-72
2021/07/06 07:52:09;;;;;;;6.38;5.15;;;;;;;32.77;23.11;99969.16;5007957;28;20052;-70
2021/07/06 07:54:35;;;;;;;12.30;5.55;;;;;;;32.44;23.98;99993.59;4993841;28;20046;-72
2021/07/06 07:57:01;;;;;;;10.82;5.68;;;;;;;32.30;24.91;99994.28;4993504;28;20095;-73
2021/07/06 07:59:29;;;;;;;6.35;5.00;;;;;;;32.82;23.09;99985.78;5012663;28;20042;-72
2021/07/06 08:01:55;;;;;;;8.90;5.13;;;;;;;31.85;24.94;99986.63;4978676;28;20042;-70
2021/07/06 08:04:21;;;;;;;5.93;5.40;;;;;;;32.10;24.92;100001.03;4993098;28;20041;-70
2021/07/06 08:06:46;;;;;;;6.47;5.15;;;;;;;32.75;24.47;99973.91;5012864;28;20095;-71
2021/07/06 08:09:13;;;;;;;8.48;4.72;;;;;;;31.78;24.94;99977.47;5013274;28;20061;-73
2021/07/06 08:11:38;;;;;;;8.27;4.72;;;;;;;31.28;26.59;99972.97;5031539;28;20056;-76
2021/07/06 08:14:04;;;;;;;13.52;5.03;;;;;;;31.82;25.64;99987.81;4996442;28;20053;-71
2021/07/06 08:16:30;;;;;;;13.50;5.10;;;;;;;32.52;24.13;99980.03;5030523;28;20076;-70
2021/07/06 08:18:55;;;;;;;6.95;5.35;;;;;;;32.39;24.42;99979.72;5031649;28;20123;-74
2021/07/06 08:21:21;;;;;;;7.65;5.05;;;;;;;32.12;24.38;99978.19;5029445;28;20042;-69
2021/07/06 08:23:47;;;;;;;5.80;5.25;;;;;;;33.82;22.81;99977.84;5013488;28;20103;-71
2021/07/06 08:26:13;;;;;;;5.30;4.65;;;;;;;34.71;21.30;99980.63;5027674;28;20566;-73
2021/07/06 08:28:38;;;;;;;11.05;5.43;;;;;;;34.20;21.81;99993.16;5030752;28;20168;-75
2021/07/06 08:31:04;;;;;;;5.45;4.80;;;;;;;34.16;22.08;99967.38;5030164;28;20038;-77
2021/07/06 08:33:30;;;;;;;7.38;4.88;;;;;;;32.79;22.69;99980.69;5030169;28;20180;-74
2021/07/06 08:35:55;;;;;;;7.68;5.00;;;;;;;33.11;23.04;99986.00;5030961;28;20072;-74
2021/07/06 08:38:21;;;;;;;5.60;4.97;;;;;;;32.47;22.94;99997.81;5013451;28;20053;-73
2021/07/06 08:40:51;;;;;;;8.75;5.07;;;;;;;32.32;24.30;99978.72;5032049;28;20037;-76
2021/07/06 08:43:17;;;;;;;17.13;4.72;;;;;;;33.88;22.76;99985.28;5014425;28;20495;-69
2021/07/06 08:45:44;;;;;;;9.30;4.88;;;;;;;34.86;20.76;99994.25;5031915;28;20049;-74
2021/07/06 08:48:11;;;;;;;6.30;4.72;;;;;;;35.20;21.04;99990.94;5032037;28;20045;-77
2021/07/06 08:50:37;;;;;;;7.88;4.60;;;;;;;33.97;21.51;99970.59;5005360;28;20054;-66
2021/07/06 08:53:03;;;;;;;7.93;4.45;;;;;;;34.14;21.38;99976.72;5009982;28;20052;-70
2021/07/06 08:55:29;;;;;;;5.55;4.80;;;;;;;33.43;22.49;99978.72;5009124;28;20048;-72
2021/07/06 08:57:55;;;;;;;6.97;4.85;;;;;;;32.73;23.37;99982.22;5009885;28;20034;-67
2021/07/06 09:00:22;;;;;;;6.43;4.35;;;;;;;32.66;23.94;99973.06;4991291;28;20046;-69
2021/07/06 09:02:55;;;;;;;7.35;4.80;;;;;;;32.39;23.23;99954.50;5010062;28;20042;-70
2021/07/06 09:05:21;;;;;;;7.22;4.60;;;;;;;32.70;22.82;99965.44;5009409;28;20041;-68
2021/07/06 09:07:47;;;;;;;9.50;4.68;;;;;;;31.61;25.38;99971.19;4992742;28;20136;-66
2021/07/06 09:10:17;;;;;;;5.43;4.25;;;;;;;30.38;26.09;99973.44;5028339;28;20183;-65
2021/07/06 09:12:46;;;;;;;8.45;4.78;;;;;;;30.12;27.53;99970.72;5028176;28;20076;-67
2021/07/06 09:15:52;;;;;;;4.97;4.50;;;;;;;29.40;27.53;99962.56;5028509;28;20409;-65
2021/07/06 09:18:53;;;;;;;10.80;4.55;;;;;;;29.97;27.44;99943.41;5017452;28;20198;-69
2021/07/06 09:22:09;;;;;;;5.22;4.82;;;;;;;29.66;29.03;99957.28;5029302;28;20049;-68
2021/07/06 09:24:35;;;;;;;7.38;4.47;;;;;;;29.16;29.24;99947.97;4896602;29;20055;-70
2021/07/06 09:27:20;;;;;;;7.47;4.93;;;;;;;27.95;31.70;99950.53;4929840;29;20048;-72
2021/07/06 09:30:16;;;;;;;8.07;4.85;;;;;;;28.21;32.75;99969.63;5010930;28;20056;-71
2021/07/06 09:32:47;;;;;;;9.15;4.60;;;;;;;27.21;31.02;99973.34;5029673;28;20060;-71
2021/07/06 09:35:15;;;;;;;12.35;5.40;;;;;;;27.26;31.60;99948.75;4994952;28;20124;-73
2021/07/06 09:38:01;;;;;;;6.15;4.78;;;;;;;27.14;31.27;99964.16;5029241;28;20049;-74
2021/07/06 09:40:31;;;;;;;13.20;5.13;;;;;;;27.10;31.80;99951.13;5028242;28;20418;-72
2021/07/06 09:43:19;;;;;;;8.10;5.05;;;;;;;27.00;31.99;99945.75;5016718;28;20053;-73
2021/07/06 09:45:50;;;;;;;9.32;4.93;;;;;;;27.04;32.83;99938.25;5030110;28;20561;-73
2021/07/06 09:48:16;;;;;;;6.70;4.55;;;;;;;26.91;32.87;99959.94;5030074;28;20055;-73
2021/07/06 09:50:43;;;;;;;6.70;4.97;;;;;;;26.69;32.36;99944.00;5011714;28;20053;-72
2021/07/06 09:53:29;;;;;;;8.77;5.15;;;;;;;27.04;32.49;99954.38;5030116;28;20057;-72
2021/07/06 09:55:55;;;;;;;8.60;4.95;;;;;;;26.80;32.58;99960.91;5030368;28;20051;-71
2021/07/06 09:58:21;;;;;;;8.60;4.68;;;;;;;26.45;32.72;99938.97;5011704;28;20037;-73
2021/07/06 10:00:49;;;;;;;6.35;4.65;;;;;;;27.12;32.63;99933.91;5030243;28;20045;-71
2021/07/06 10:03:15;;;;;;;7.15;4.63;;;;;;;27.40;32.14;99951.03;5010150;28;20041;-74
2021/07/06 10:05:43;;;;;;;11.07;4.72;;;;;;;27.30;32.03;99941.28;5028938;28;20041;-70
2021/07/06 10:08:10;;;;;;;6.45;4.75;;;;;;;27.08;33.84;99945.06;5026806;28;20081;-75
2021/07/06 10:10:36;;;;;;;7.30;5.10;;;;;;;27.23;32.71;99967.84;5010628;28;20056;-72
2021/07/06 10:13:02;;;;;;;6.32;4.88;;;;;;;26.72;31.80;99955.31;5009576;28;20041;-72
2021/07/06 10:15:48;;;;;;;6.30;4.50;;;;;;;26.61;32.57;99950.06;5029174;28;20111;-72
2021/07/06 10:18:14;;;;;;;6.28;4.47;;;;;;;26.31;32.26;99945.50;5010959;28;20042;-75
2021/07/06 10:20:40;;;;;;;10.07;5.00;;;;;;;26.41;33.15;99933.00;5029030;28;20083;-71
2021/07/06 10:23:07;;;;;;;9.55;4.47;;;;;;;26.58;33.51;99937.75;5028630;28;20095;-70
2021/07/06 10:25:35;;;;;;;6.38;4.80;;;;;;;26.65;33.23;99948.81;5010840;28;20055;-71
2021/07/06 10:28:04;;;;;;;5.00;4.53;;;;;;;26.61;32.45;99942.00;5009739;28;20045;-72
2021/07/06 10:30:33;;;;;;;6.05;4.35;;;;;;;26.57;32.18;99946.78;5011070;28;20056;-74
2021/07/06 10:33:00;;;;;;;7.15;4.82;;;;;;;26.66;32.31;99929.03;4978613;28;20037;-74
2021/07/06 10:35:39;;;;;;;5.88;4.55;;;;;;;26.56;33.11;99938.88;4995396;28;20053;-72
2021/07/06 10:38:31;;;;;;;5.18;4.68;;;;;;;26.47;31.55;99928.94;4978093;28;20140;-72
2021/07/06 10:41:01;;;;;;;7.47;4.47;;;;;;;26.36;31.37;99964.75;5032630;28;20127;-74
2021/07/06 10:43:30;;;;;;;7.88;4.20;;;;;;;26.28;30.68;99941.25;4998315;28;20398;-75
2021/07/06 10:45:57;;;;;;;5.22;4.30;;;;;;;26.29;31.76;99926.00;5028886;28;20111;-73
2021/07/06 10:48:44;;;;;;;6.00;4.75;;;;;;;26.23;32.72;99932.75;5049399;28;20116;-72
2021/07/06 10:51:38;;;;;;;7.20;5.07;;;;;;;26.33;34.77;99931.97;5026938;28;20065;-73
2021/07/06 10:54:08;;;;;;;6.10;4.82;;;;;;;26.30;33.46;99916.97;5028096;28;20041;-72
2021/07/06 10:56:38;;;;;;;6.60;4.80;;;;;;;26.45;34.58;99928.22;5028307;28;20136;-71
2021/07/06 10:59:06;;;;;;;9.45;4.70;;;;;;;26.42;32.58;99925.81;5028116;28;20073;-70
2021/07/06 11:01:41;;;;;;;6.00;5.13;;;;;;;26.36;32.44;99937.94;5028080;28;20067;-70
2021/07/06 11:04:12;;;;;;;6.32;4.53;;;;;;;26.32;31.66;99924.88;5027506;28;20440;-70
2021/07/06 11:06:47;;;;;;;7.72;4.75;;;;;;;26.38;31.01;99924.38;5025968;28;20128;-69
2021/07/06 11:09:22;;;;;;;10.10;4.63;;;;;;;26.49;31.79;99918.94;5027627;28;20498;-71
2021/07/06 11:11:48;;;;;;;6.72;4.30;;;;;;;26.58;31.23;99924.34;5027657;28;20085;-70
2021/07/06 11:14:20;;;;;;;4.45;4.05;;;;;;;26.63;31.00;99923.94;5027473;28;20454;-70
2021/07/06 11:17:03;;;;;;;8.50;4.60;;;;;;;26.65;31.20;99916.59;5024584;28;20092;-70
2021/07/06 11:19:36;;;;;;;6.47;4.20;;;;;;;26.73;30.96;99903.34;5027169;28;20057;-70
2021/07/06 11:22:13;;;;;;;13.00;4.78;;;;;;;26.80;30.47;99912.59;5026604;28;20064;-70
2021/07/06 11:24:44;;;;;;;7.05;4.20;;;;;;;26.76;29.46;99910.31;5026584;28;20607;-71
2021/07/06 11:27:12;;;;;;;6.20;3.90;;;;;;;26.70;30.10;99903.63;5028597;28;20071;-71
2021/07/06 11:29:41;;;;;;;4.60;4.20;;;;;;;26.56;31.25;99901.31;5033483;28;20500;-65